Time;durP1;ratioP1;P1;durP2;ratioP2;P2;SDS_P1;SDS_P2;PMS_P1;PMS_P2;Temp;Humidity;BMP_temperature;BMP_pressure;BME280_temperature;BME280_humidity;BME280_pressure;Samples;Min_cycle;Max_cycle;Signal;HPM_P1;HPM_P2
2023/05/09 00:00:31;;;;;;;13.50;12.10;;;17.30;99.90;;;;;;5024224;28;20191;-77
2023/05/09 00:02:57;;;;;;;13.33;11.90;;;17.30;99.90;;;;;;5018454;28;20226;-78
2023/05/09 00:05:23;;;;;;;14.17;12.87;;;17.30;99.90;;;;;;5027096;28;20579;-78
2023/05/09 00:07:48;;;;;;;14.00;12.57;;;17.30;99.90;;;;;;5029275;28;20558;-78
2023/05/09 00:10:14;;;;;;;14.90;13.13;;;17.30;99.90;;;;;;5028843;28;20271;-77
2023/05/09 00:12:42;;;;;;;14.50;13.20;;;17.30;99.90;;;;;;5024792;28;20533;-77
2023/05/09 00:15:08;;;;;;;13.77;12.43;;;17.30;99.90;;;;;;5018651;28;20179;-77
2023/05/09 00:17:38;;;;;;;14.27;12.83;;;17.30;99.90;;;;;;5032773;28;20568;-77
2023/05/09 00:20:08;;;;;;;15.10;13.57;;;17.20;99.90;;;;;;5019085;28;20730;-77
2023/05/09 00:22:34;;;;;;;13.57;12.17;;;17.20;99.90;;;;;;5018101;28;20228;-78
2023/05/09 00:25:00;;;;;;;14.03;12.63;;;17.30;99.90;;;;;;5026211;28;20186;-77
2023/05/09 00:27:29;;;;;;;13.27;12.07;;;17.30;99.90;;;;;;5025362;28;20334;-77
2023/05/09 00:29:55;;;;;;;13.57;12.27;;;17.20;99.90;;;;;;5019769;28;20588;-77
2023/05/09 00:32:21;;;;;;;12.57;11.47;;;17.20;99.90;;;;;;5023292;28;20207;-77
2023/05/09 00:34:46;;;;;;;12.60;11.40;;;17.20;99.90;;;;;;5017805;28;20182;-77
2023/05/09 00:37:12;;;;;;;14.40;13.07;;;17.10;99.90;;;;;;5015545;28;20196;-77
2023/05/09 00:39:38;;;;;;;13.20;12.00;;;17.10;99.90;;;;;;5023404;28;20187;-77
2023/05/09 00:42:04;;;;;;;13.13;11.83;;;17.00;99.90;;;;;;5018279;28;20252;-76
2023/05/09 00:44:30;;;;;;;13.77;12.30;;;17.00;99.90;;;;;;5019246;28;20194;-77
2023/05/09 00:46:55;;;;;;;13.30;12.00;;;17.00;99.90;;;;;;5016392;28;20658;-77
2023/05/09 00:49:21;;;;;;;12.83;11.63;;;17.00;99.90;;;;;;5023795;28;20190;-77
2023/05/09 00:51:47;;;;;;;13.47;12.17;;;17.00;99.90;;;;;;5024677;28;20202;-77
2023/05/09 00:54:13;;;;;;;12.20;10.93;;;17.00;99.90;;;;;;5030817;28;20201;-77
2023/05/09 00:56:39;;;;;;;12.77;11.53;;;17.00;99.90;;;;;;5013603;28;21890;-77
2023/05/09 00:59:06;;;;;;;13.97;11.07;;;17.00;99.90;;;;;;5024493;28;20693;-76
2023/05/09 01:01:32;;;;;;;12.93;11.77;;;17.10;99.90;;;;;;5021300;28;20201;-77
2023/05/09 01:03:58;;;;;;;13.87;11.93;;;17.00;99.90;;;;;;5010793;28;20186;-77
2023/05/09 01:06:40;;;;;;;12.70;11.60;;;17.10;99.90;;;;;;5018048;28;20269;-77
2023/05/09 01:09:22;;;;;;;11.53;10.43;;;17.10;99.90;;;;;;5016322;28;20203;-76
2023/05/09 01:12:15;;;;;;;11.67;10.57;;;17.10;99.90;;;;;;5020797;28;20695;-77
2023/05/09 01:14:56;;;;;;;12.20;10.90;;;17.10;99.90;;;;;;5016694;28;20178;-77
2023/05/09 01:17:35;;;;;;;11.13;10.13;;;17.10;99.90;;;;;;5015803;28;20179;-77
2023/05/09 01:20:09;;;;;;;11.67;10.47;;;17.20;99.90;;;;;;5025697;28;20626;-78
2023/05/09 01:22:38;;;;;;;12.50;11.30;;;17.20;99.90;;;;;;5013562;28;20357;-77
2023/05/09 01:25:09;;;;;;;11.57;10.40;;;17.10;99.90;;;;;;5022310;28;20180;-77
2023/05/09 01:27:49;;;;;;;11.77;10.70;;;17.20;99.90;;;;;;5030077;28;20198;-78
2023/05/09 01:30:17;;;;;;;12.80;11.37;;;17.10;99.90;;;;;;5012629;28;20282;-77
2023/05/09 01:32:46;;;;;;;12.57;11.30;;;17.10;99.90;;;;;;5017042;28;20202;-77
2023/05/09 01:35:14;;;;;;;11.30;10.30;;;17.00;99.90;;;;;;5012126;28;20171;-78
2023/05/09 01:37:43;;;;;;;12.03;10.20;;;17.00;99.90;;;;;;5025724;28;20187;-78
2023/05/09 01:40:20;;;;;;;12.40;11.00;;;17.00;99.90;;;;;;5020192;28;20186;-77
2023/05/09 01:42:49;;;;;;;12.70;11.50;;;16.90;99.90;;;;;;5027033;28;20201;-77
2023/05/09 01:45:16;;;;;;;12.73;11.43;;;16.90;99.90;;;;;;4998882;28;20195;-77
2023/05/09 01:47:42;;;;;;;12.70;11.40;;;16.90;99.90;;;;;;5019814;28;20214;-77
2023/05/09 01:50:11;;;;;;;12.50;11.30;;;16.80;99.90;;;;;;5019050;28;20534;-78
2023/05/09 01:52:38;;;;;;;12.40;11.30;;;16.80;99.90;;;;;;5012981;28;20226;-77
2023/05/09 01:55:06;;;;;;;12.40;11.20;;;16.80;99.90;;;;;;4997122;28;20611;-77
2023/05/09 01:57:32;;;;;;;11.60;10.50;;;16.80;99.90;;;;;;5001365;28;20525;-77
2023/05/09 01:59:59;;;;;;;12.73;11.53;;;16.60;99.90;;;;;;5016893;28;20245;-77
2023/05/09 02:02:26;;;;;;;11.87;10.67;;;16.60;99.90;;;;;;5012367;28;20199;-76
2023/05/09 02:04:56;;;;;;;12.17;10.83;;;16.60;99.90;;;;;;5044300;28;20183;-77
2023/05/09 02:07:23;;;;;;;14.37;11.57;;;16.60;99.90;;;;;;5029660;28;20206;-77
2023/05/09 02:09:55;;;;;;;12.93;11.63;;;16.50;99.90;;;;;;5030957;28;20155;-77
2023/05/09 02:12:23;;;;;;;12.67;11.47;;;16.40;99.90;;;;;;5030478;28;20190;-77
2023/05/09 02:14:49;;;;;;;13.47;12.07;;;16.30;99.90;;;;;;5030559;28;20253;-77
2023/05/09 02:17:16;;;;;;;13.50;12.17;;;16.30;99.90;;;;;;5030969;28;20171;-79
2023/05/09 02:19:42;;;;;;;13.30;12.00;;;16.20;99.90;;;;;;5014651;28;20209;-77
2023/05/09 02:22:09;;;;;;;14.33;12.70;;;16.30;99.90;;;;;;5031532;28;20202;-77
2023/05/09 02:24:35;;;;;;;13.97;12.60;;;16.30;99.90;;;;;;5032054;28;20646;-77
2023/05/09 02:27:06;;;;;;;14.67;12.23;;;16.30;99.90;;;;;;5014144;28;20776;-78
2023/05/09 02:29:39;;;;;;;15.33;13.80;;;16.30;99.90;;;;;;5025972;28;20654;-77
2023/05/09 02:32:12;;;;;;;14.90;13.40;;;16.30;99.90;;;;;;5010823;28;20211;-76
2023/05/09 02:34:40;;;;;;;15.93;13.63;;;16.30;99.90;;;;;;5012808;28;20164;-77
2023/05/09 02:37:07;;;;;;;14.97;13.57;;;16.20;99.90;;;;;;5018027;28;20256;-77
2023/05/09 02:39:35;;;;;;;15.40;13.77;;;16.20;99.90;;;;;;5030562;28;20182;-78
2023/05/09 02:42:06;;;;;;;13.13;11.83;;;16.20;99.90;;;;;;5013830;28;20202;-77
2023/05/09 02:44:33;;;;;;;14.13;12.80;;;16.10;99.90;;;;;;5017848;28;20681;-77
2023/05/09 02:47:00;;;;;;;15.03;13.53;;;16.10;99.90;;;;;;5013440;28;20545;-77
2023/05/09 02:49:26;;;;;;;14.93;13.43;;;16.10;99.90;;;;;;5030517;28;20182;-76
2023/05/09 02:51:51;;;;;;;14.03;12.70;;;16.10;99.90;;;;;;5030619;28;20654;-77
2023/05/09 02:54:17;;;;;;;15.97;14.37;;;16.10;99.90;;;;;;5030927;28;20190;-77
2023/05/09 02:56:43;;;;;;;14.73;13.23;;;16.00;99.90;;;;;;5030561;28;20185;-77
2023/05/09 02:59:09;;;;;;;16.40;13.63;;;16.00;99.90;;;;;;5014114;28;20171;-77
2023/05/09 03:01:34;;;;;;;16.13;14.43;;;15.90;99.90;;;;;;5029995;28;20214;-77
2023/05/09 03:04:01;;;;;;;16.60;14.87;;;15.70;99.90;;;;;;5029828;28;20204;-77
2023/05/09 03:06:27;;;;;;;16.70;14.87;;;15.70;99.90;;;;;;5016971;28;20201;-77
2023/05/09 03:08:53;;;;;;;15.63;13.17;;;15.70;99.90;;;;;;5008074;28;20207;-77
2023/05/09 03:11:21;;;;;;;18.70;15.03;;;15.60;99.90;;;;;;4998080;28;20732;-77
2023/05/09 03:13:47;;;;;;;15.60;14.00;;;15.50;99.90;;;;;;4993619;28;20187;-77
2023/05/09 03:16:14;;;;;;;16.20;14.47;;;15.50;99.90;;;;;;5011815;28;20543;-77
2023/05/09 03:18:40;;;;;;;14.63;13.20;;;15.50;99.90;;;;;;5016239;28;20681;-77
2023/05/09 03:21:06;;;;;;;17.33;14.87;;;15.50;99.90;;;;;;5010210;28;20274;-76
2023/05/09 03:23:34;;;;;;;15.03;13.53;;;15.40;99.90;;;;;;5009499;28;20172;-76
2023/05/09 03:26:00;;;;;;;14.70;13.20;;;15.40;99.90;;;;;;5010337;28;20167;-77
2023/05/09 03:28:27;;;;;;;15.77;12.97;;;15.40;99.90;;;;;;5010197;28;20273;-77
2023/05/09 03:30:53;;;;;;;15.83;14.13;;;15.40;99.90;;;;;;5010145;28;20190;-76
2023/05/09 03:33:22;;;;;;;14.03;12.63;;;15.50;99.90;;;;;;4994010;28;20207;-77
2023/05/09 03:35:47;;;;;;;14.73;13.23;;;15.50;99.90;;;;;;5010168;28;20206;-78
2023/05/09 03:38:13;;;;;;;14.23;12.77;;;15.40;99.90;;;;;;5010289;28;20550;-76
2023/05/09 03:40:39;;;;;;;15.73;14.13;;;15.30;99.90;;;;;;5011332;28;20262;-77
2023/05/09 03:43:08;;;;;;;15.80;14.03;;;15.30;99.90;;;;;;5010031;28;20281;-78
2023/05/09 03:45:35;;;;;;;18.07;15.10;;;15.30;99.90;;;;;;5010300;28;20187;-77
2023/05/09 03:48:04;;;;;;;16.27;14.70;;;15.40;99.90;;;;;;5010149;28;20245;-77
2023/05/09 03:50:29;;;;;;;14.10;12.70;;;15.40;99.90;;;;;;5010782;28;20183;-77
2023/05/09 03:52:57;;;;;;;17.73;15.27;;;15.40;99.90;;;;;;5010308;28;20210;-77
2023/05/09 03:55:23;;;;;;;14.80;13.30;;;15.30;99.90;;;;;;5009912;28;20187;-77
2023/05/09 03:57:48;;;;;;;16.83;15.13;;;15.40;99.90;;;;;;5010042;28;20188;-77
2023/05/09 04:00:16;;;;;;;18.37;15.30;;;15.30;99.90;;;;;;5010041;28;20207;-77
2023/05/09 04:02:50;;;;;;;15.77;13.60;;;15.30;99.90;;;;;;5009780;28;20573;-77
2023/05/09 04:05:25;;;;;;;14.93;13.43;;;15.40;99.90;;;;;;4993968;28;20623;-77
2023/05/09 04:07:51;;;;;;;15.57;13.70;;;15.40;99.90;;;;;;4993611;28;20222;-77
2023/05/09 04:10:18;;;;;;;15.70;13.50;;;15.50;99.90;;;;;;5010320;28;20179;-77
2023/05/09 04:12:44;;;;;;;14.63;13.23;;;15.50;99.90;;;;;;4998370;28;20196;-77
2023/05/09 04:15:10;;;;;;;15.93;14.23;;;15.60;99.90;;;;;;4990384;28;20176;-77
2023/05/09 04:17:36;;;;;;;17.23;15.43;;;15.60;99.90;;;;;;4990128;28;20183;-77
2023/05/09 04:20:02;;;;;;;15.90;14.17;;;15.60;99.90;;;;;;4990344;28;20195;-77
2023/05/09 04:22:28;;;;;;;16.70;15.10;;;15.60;99.90;;;;;;4999350;28;20211;-77
2023/05/09 04:24:53;;;;;;;16.53;14.63;;;15.60;99.90;;;;;;5009772;28;20724;-76
2023/05/09 04:27:19;;;;;;;16.83;15.13;;;15.70;99.90;;;;;;5009825;28;20178;-78
2023/05/09 04:29:45;;;;;;;16.23;14.63;;;15.70;99.90;;;;;;5013627;28;20289;-78
2023/05/09 04:32:12;;;;;;;16.00;14.03;;;15.80;99.90;;;;;;5019289;28;20201;-77
2023/05/09 04:34:37;;;;;;;17.27;14.20;;;15.80;99.90;;;;;;5026218;28;20175;-78
2023/05/09 04:37:12;;;;;;;15.20;13.60;;;15.90;99.90;;;;;;4997064;28;20560;-77
2023/05/09 04:39:38;;;;;;;14.63;13.13;;;16.00;99.90;;;;;;4997149;28;20557;-77
2023/05/09 04:42:12;;;;;;;16.90;15.13;;;16.00;99.90;;;;;;5012661;28;20208;-77
2023/05/09 04:44:38;;;;;;;16.97;14.50;;;16.00;99.90;;;;;;5020817;28;20180;-76
2023/05/09 04:47:04;;;;;;;15.57;14.07;;;16.00;99.90;;;;;;5029965;28;20178;-77
2023/05/09 04:49:30;;;;;;;19.97;16.67;;;16.10;99.90;;;;;;4996790;28;20191;-77
2023/05/09 04:51:56;;;;;;;18.17;16.47;;;16.10;99.90;;;;;;5026200;28;20242;-77
2023/05/09 04:54:22;;;;;;;20.57;17.03;;;16.20;99.90;;;;;;5028192;28;20233;-77
2023/05/09 04:56:51;;;;;;;17.70;15.90;;;16.20;99.90;;;;;;5017528;28;20223;-77
2023/05/09 04:59:17;;;;;;;18.90;16.97;;;16.10;99.90;;;;;;5015989;28;20186;-77
2023/05/09 05:01:43;;;;;;;20.00;17.63;;;16.10;99.90;;;;;;5032633;28;20242;-77
2023/05/09 05:04:09;;;;;;;17.07;15.27;;;16.10;99.90;;;;;;5019313;28;20221;-77
2023/05/09 05:06:35;;;;;;;18.20;16.30;;;16.10;99.90;;;;;;5012669;28;20591;-77
2023/05/09 05:09:01;;;;;;;15.87;14.20;;;16.20;99.90;;;;;;5013719;28;20201;-78
2023/05/09 05:11:26;;;;;;;17.50;15.73;;;16.20;99.90;;;;;;5015663;28;20206;-77
2023/05/09 05:13:52;;;;;;;16.20;14.50;;;16.30;99.90;;;;;;5018063;28;20266;-79
2023/05/09 05:16:18;;;;;;;17.83;16.13;;;16.40;99.90;;;;;;4979365;28;20609;-77
2023/05/09 05:18:44;;;;;;;16.90;15.20;;;16.40;99.90;;;;;;5012450;28;20214;-77
2023/05/09 05:21:10;;;;;;;19.70;17.23;;;16.50;99.90;;;;;;4980079;28;20218;-77
2023/05/09 05:23:36;;;;;;;17.23;15.43;;;16.50;99.90;;;;;;5012068;28;20217;-77
2023/05/09 05:26:02;;;;;;;19.80;15.90;;;16.60;99.90;;;;;;5030869;28;20183;-77
2023/05/09 05:28:29;;;;;;;17.77;16.00;;;16.60;99.90;;;;;;5031653;28;20206;-78
2023/05/09 05:30:55;;;;;;;18.23;16.43;;;16.70;99.90;;;;;;5023085;28;20230;-77
2023/05/09 05:33:21;;;;;;;18.47;16.57;;;16.80;99.90;;;;;;5011821;28;20224;-77
2023/05/09 05:35:47;;;;;;;17.43;15.73;;;16.80;99.90;;;;;;4996241;28;20506;-77
2023/05/09 05:38:13;;;;;;;17.67;15.87;;;16.90;99.90;;;;;;5012261;28;20184;-77
2023/05/09 05:40:38;;;;;;;17.87;16.07;;;16.90;99.90;;;;;;5012031;28;20186;-77
2023/05/09 05:43:05;;;;;;;18.40;16.50;;;17.10;99.90;;;;;;5003619;28;20254;-77
2023/05/09 05:45:32;;;;;;;16.70;15.03;;;17.10;99.90;;;;;;4976358;28;20194;-77
2023/05/09 05:48:01;;;;;;;17.93;16.07;;;17.20;99.90;;;;;;5015290;28;20275;-77
2023/05/09 05:50:28;;;;;;;16.10;14.43;;;17.40;99.90;;;;;;5015415;28;20552;-77
2023/05/09 05:52:54;;;;;;;18.73;15.70;;;17.50;99.90;;;;;;5014961;28;20217;-77
2023/05/09 05:55:20;;;;;;;18.37;16.57;;;17.50;99.90;;;;;;5031645;28;20249;-79
2023/05/09 05:57:47;;;;;;;17.07;15.13;;;17.60;99.90;;;;;;5032828;28;20649;-77
2023/05/09 06:00:15;;;;;;;18.40;15.87;;;17.70;99.90;;;;;;5032305;28;20626;-77
2023/05/09 06:02:46;;;;;;;17.43;15.73;;;17.70;99.90;;;;;;5029104;28;20241;-77
2023/05/09 06:05:19;;;;;;;18.50;15.77;;;17.80;99.90;;;;;;5019210;28;20179;-78
2023/05/09 06:07:45;;;;;;;16.27;14.67;;;17.80;99.90;;;;;;5016556;28;20265;-77
2023/05/09 06:10:11;;;;;;;18.03;16.17;;;17.90;99.90;;;;;;5011363;28;20219;-76
2023/05/09 06:12:37;;;;;;;20.00;18.00;;;17.90;99.90;;;;;;5007699;28;20208;-79
2023/05/09 06:15:06;;;;;;;19.83;17.77;;;18.00;99.90;;;;;;5008104;28;20593;-77
2023/05/09 06:17:35;;;;;;;20.00;17.97;;;18.00;99.90;;;;;;5007651;28;20598;-77
2023/05/09 06:20:01;;;;;;;19.80;17.80;;;18.00;99.90;;;;;;5023522;28;20246;-77
2023/05/09 06:22:27;;;;;;;17.40;15.70;;;18.00;99.90;;;;;;5007846;28;20243;-78
2023/05/09 06:24:52;;;;;;;17.37;15.77;;;18.10;99.90;;;;;;5032326;28;20276;-77
2023/05/09 06:27:18;;;;;;;17.20;15.40;;;18.10;99.90;;;;;;5025485;28;20286;-76
2023/05/09 06:29:44;;;;;;;16.93;15.20;;;18.20;99.90;;;;;;5014349;28;20178;-77
2023/05/09 06:32:09;;;;;;;17.70;16.00;;;18.20;99.90;;;;;;5007655;28;20195;-77
2023/05/09 06:34:35;;;;;;;16.23;14.53;;;18.30;99.90;;;;;;5008093;28;20603;-77
2023/05/09 06:37:01;;;;;;;19.07;17.13;;;18.40;99.90;;;;;;5005933;28;20183;-77
2023/05/09 06:39:26;;;;;;;17.50;15.73;;;18.50;99.90;;;;;;5010447;28;20229;-78
2023/05/09 06:41:52;;;;;;;16.70;15.10;;;18.60;99.90;;;;;;5013552;28;20726;-77
2023/05/09 06:44:26;;;;;;;15.73;13.93;;;18.70;99.90;;;;;;4994399;28;20205;-77
2023/05/09 06:46:52;;;;;;;18.80;16.87;;;18.70;99.90;;;;;;5013215;28;20191;-77
2023/05/09 06:49:18;;;;;;;18.17;16.27;;;18.80;99.90;;;;;;5011770;28;20221;-77
2023/05/09 06:51:44;;;;;;;19.57;17.57;;;18.90;99.90;;;;;;5000358;28;20191;-77
2023/05/09 06:54:10;;;;;;;19.37;17.43;;;19.00;99.90;;;;;;5008007;28;20662;-78
2023/05/09 06:56:35;;;;;;;18.17;16.33;;;19.10;99.90;;;;;;5010705;28;20632;-78
2023/05/09 06:59:01;;;;;;;17.83;16.07;;;19.10;99.90;;;;;;5019696;28;20203;-77
2023/05/09 07:01:27;;;;;;;17.80;16.03;;;19.20;99.90;;;;;;5016381;28;20279;-77
2023/05/09 07:03:52;;;;;;;18.70;16.90;;;19.30;99.90;;;;;;5030948;28;20273;-78
2023/05/09 07:06:18;;;;;;;19.97;16.73;;;19.30;99.90;;;;;;5011365;28;20198;-78
2023/05/09 07:08:44;;;;;;;18.37;16.57;;;19.40;99.90;;;;;;5010507;28;20207;-77
2023/05/09 07:11:10;;;;;;;19.47;17.53;;;19.50;99.90;;;;;;5010066;28;20869;-77
2023/05/09 07:13:36;;;;;;;21.17;17.20;;;19.60;99.90;;;;;;5009197;28;20263;-77
2023/05/09 07:16:01;;;;;;;17.40;15.60;;;19.70;99.90;;;;;;5008023;28;20269;-77
2023/05/09 07:18:28;;;;;;;18.97;16.97;;;19.70;99.90;;;;;;4988456;28;20667;-77
2023/05/09 07:20:54;;;;;;;18.53;16.57;;;19.70;99.90;;;;;;5008209;28;20210;-77
2023/05/09 07:23:20;;;;;;;18.10;16.20;;;19.80;99.90;;;;;;5024698;28;20265;-77
2023/05/09 07:25:45;;;;;;;19.60;17.50;;;19.80;99.90;;;;;;5012733;28;20189;-77
2023/05/09 07:28:11;;;;;;;19.13;17.17;;;19.70;99.90;;;;;;5011719;28;20283;-77
2023/05/09 07:30:37;;;;;;;18.03;16.20;;;19.70;99.90;;;;;;5012900;28;20176;-78
2023/05/09 07:33:03;;;;;;;20.87;17.20;;;19.70;99.90;;;;;;5012596;28;20704;-76
2023/05/09 07:35:29;;;;;;;20.53;17.87;;;19.50;99.90;;;;;;5008041;28;20199;-77
2023/05/09 07:37:54;;;;;;;21.17;16.43;;;19.50;99.90;;;;;;5010072;28;20210;-77
2023/05/09 07:40:20;;;;;;;22.23;17.47;;;19.50;99.90;;;;;;5011192;28;20183;-77
2023/05/09 07:42:48;;;;;;;20.70;17.47;;;19.50;99.90;;;;;;5010352;28;20223;-77
2023/05/09 07:45:15;;;;;;;18.33;16.13;;;19.40;99.90;;;;;;5007352;28;20200;-77
2023/05/09 07:47:40;;;;;;;18.37;16.37;;;19.50;99.90;;;;;;5012567;28;20581;-77
2023/05/09 07:50:07;;;;;;;19.47;17.47;;;19.50;99.90;;;;;;5011411;28;20770;-77
2023/05/09 07:52:32;;;;;;;18.80;16.90;;;19.50;99.90;;;;;;5010824;28;20199;-77
2023/05/09 07:54:58;;;;;;;21.37;16.27;;;19.50;99.90;;;;;;5011280;28;20643;-77
2023/05/09 07:57:24;;;;;;;20.07;17.87;;;19.40;99.90;;;;;;5013041;28;20654;-77
2023/05/09 07:59:50;;;;;;;19.87;17.77;;;19.40;99.90;;;;;;5011823;28;20651;-77
2023/05/09 08:02:15;;;;;;;22.07;18.13;;;19.30;99.90;;;;;;5021401;28;20705;-77
2023/05/09 08:04:41;;;;;;;18.93;15.60;;;19.20;99.90;;;;;;5008016;28;20266;-77
2023/05/09 08:07:07;;;;;;;18.30;14.83;;;19.10;99.90;;;;;;5012279;28;20550;-77
2023/05/09 08:09:33;;;;;;;17.90;15.23;;;19.10;99.90;;;;;;5013470;28;20211;-77
2023/05/09 08:11:59;;;;;;;17.70;14.37;;;19.10;99.90;;;;;;5019523;28;20210;-77
2023/05/09 08:14:25;;;;;;;18.40;14.80;;;19.10;99.90;;;;;;5010290;28;20266;-77
2023/05/09 08:16:51;;;;;;;17.20;14.43;;;19.20;99.90;;;;;;5013191;28;20572;-77
2023/05/09 08:19:17;;;;;;;18.27;15.30;;;19.30;99.90;;;;;;5012662;28;20668;-77
2023/05/09 08:21:43;;;;;;;19.50;15.57;;;19.40;99.90;;;;;;5012923;28;20379;-77
2023/05/09 08:24:08;;;;;;;18.60;15.60;;;19.70;99.90;;;;;;5014382;28;20267;-77
2023/05/09 08:26:34;;;;;;;20.93;17.10;;;19.90;99.90;;;;;;5014512;28;20674;-77
2023/05/09 08:29:00;;;;;;;19.40;16.37;;;20.20;99.90;;;;;;5014470;28;20617;-77
2023/05/09 08:31:26;;;;;;;20.43;16.63;;;20.30;99.90;;;;;;4997097;28;20298;-77
2023/05/09 08:33:52;;;;;;;18.53;16.07;;;20.40;99.90;;;;;;5018250;28;20258;-77
2023/05/09 08:36:17;;;;;;;17.60;15.27;;;20.60;99.90;;;;;;5024328;28;20606;-77
2023/05/09 08:38:43;;;;;;;17.23;15.07;;;20.60;99.90;;;;;;5013259;28;20191;-77
2023/05/09 08:41:09;;;;;;;17.27;15.37;;;20.80;99.90;;;;;;5013369;28;20183;-77
2023/05/09 08:43:37;;;;;;;17.07;15.07;;;21.00;99.90;;;;;;5012857;28;20214;-77
2023/05/09 08:46:07;;;;;;;16.13;14.37;;;21.20;99.90;;;;;;5013846;28;20697;-82
2023/05/09 08:48:37;;;;;;;16.87;15.13;;;21.30;99.90;;;;;;5018101;28;20229;-79
2023/05/09 08:51:05;;;;;;;17.87;15.53;;;21.40;99.90;;;;;;5015015;28;20183;-80
2023/05/09 08:53:31;;;;;;;16.63;14.53;;;21.40;99.90;;;;;;5015133;28;20238;-78
2023/05/09 08:56:00;;;;;;;17.37;14.80;;;21.30;99.90;;;;;;5016295;28;20214;-79
2023/05/09 08:58:26;;;;;;;16.43;14.67;;;21.40;99.90;;;;;;5018189;28;20195;-80
2023/05/09 09:00:54;;;;;;;17.53;15.73;;;21.40;99.90;;;;;;5018457;28;20219;-80
2023/05/09 09:03:20;;;;;;;16.53;14.77;;;21.30;99.90;;;;;;5012324;28;20207;-80
2023/05/09 09:05:47;;;;;;;16.30;14.60;;;21.20;99.90;;;;;;5014712;28;20186;-79
2023/05/09 09:08:14;;;;;;;15.57;13.30;;;21.10;99.90;;;;;;5015265;28;20214;-80
2023/05/09 09:10:46;;;;;;;14.40;12.90;;;21.10;99.90;;;;;;5011992;28;20243;-80
2023/05/09 09:13:13;;;;;;;16.27;14.50;;;21.10;99.90;;;;;;5019240;28;20212;-80
2023/05/09 09:15:41;;;;;;;14.77;13.03;;;21.00;99.90;;;;;;5002771;28;20406;-79
2023/05/09 09:18:10;;;;;;;15.17;13.27;;;21.00;99.90;;;;;;5013251;28;20178;-79
2023/05/09 09:20:40;;;;;;;16.67;14.93;;;21.10;99.90;;;;;;5013026;28;20187;-79
2023/05/09 09:23:09;;;;;;;16.53;14.10;;;21.00;99.90;;;;;;4995971;28;20214;-79
2023/05/09 09:25:35;;;;;;;16.50;13.73;;;20.90;99.90;;;;;;5012145;28;20199;-80
2023/05/09 09:28:01;;;;;;;15.87;14.20;;;20.80;99.90;;;;;;5012157;28;20203;-82
2023/05/09 09:30:28;;;;;;;16.57;14.80;;;20.70;99.90;;;;;;4995964;28;20210;-80
2023/05/09 09:32:54;;;;;;;16.17;14.47;;;20.60;99.90;;;;;;5013756;28;20734;-79
2023/05/09 09:35:20;;;;;;;16.30;13.97;;;20.60;99.90;;;;;;5003225;28;20281;-80
2023/05/09 09:37:46;;;;;;;15.03;13.53;;;20.80;99.90;;;;;;5019549;28;20551;-80
2023/05/09 09:40:13;;;;;;;15.33;13.77;;;21.00;99.90;;;;;;4996380;28;20187;-80
2023/05/09 09:42:41;;;;;;;15.87;13.50;;;21.30;99.90;;;;;;5011893;28;20211;-81
2023/05/09 09:45:12;;;;;;;16.07;13.20;;;21.50;99.70;;;;;;5018623;28;20187;-80
2023/05/09 09:47:41;;;;;;;14.13;12.47;;;21.60;98.00;;;;;;5012160;28;20223;-79
2023/05/09 09:50:15;;;;;;;13.77;12.43;;;21.70;96.30;;;;;;5011918;28;20189;-80
2023/05/09 09:52:49;;;;;;;12.83;11.63;;;21.90;96.70;;;;;;5011637;28;20207;-78
2023/05/09 09:55:14;;;;;;;13.70;12.40;;;21.90;96.30;;;;;;4983490;28;20654;-78
2023/05/09 09:57:43;;;;;;;15.40;12.90;;;22.10;95.70;;;;;;5021905;28;20179;-77
2023/05/09 10:00:10;;;;;;;13.57;12.27;;;22.10;91.40;;;;;;5002162;28;20195;-78
2023/05/09 10:02:53;;;;;;;12.60;11.40;;;22.20;93.40;;;;;;5014074;28;20215;-77
2023/05/09 10:05:27;;;;;;;12.97;11.30;;;22.40;92.10;;;;;;5009763;28;20192;-77
2023/05/09 10:08:01;;;;;;;14.03;10.90;;;22.40;91.40;;;;;;5013671;28;20629;-77
2023/05/09 10:10:34;;;;;;;14.63;13.03;;;22.40;92.60;;;;;;5013490;28;20180;-77
2023/05/09 10:13:03;;;;;;;12.77;11.47;;;22.50;90.40;;;;;;5026329;28;20215;-77
2023/05/09 10:15:30;;;;;;;13.13;11.73;;;22.40;88.40;;;;;;5014955;28;20191;-77
2023/05/09 10:17:58;;;;;;;12.07;10.90;;;22.40;90.00;;;;;;5024711;28;20548;-77
2023/05/09 10:20:24;;;;;;;12.67;11.33;;;22.40;90.10;;;;;;5015216;28;20179;-77
2023/05/09 10:22:55;;;;;;;13.37;12.00;;;22.50;90.70;;;;;;5013020;28;20686;-77
2023/05/09 10:25:25;;;;;;;12.40;11.20;;;22.60;86.20;;;;;;5012917;28;20219;-77
2023/05/09 10:27:54;;;;;;;13.83;11.83;;;22.60;89.20;;;;;;5012997;28;20675;-77
2023/05/09 10:30:34;;;;;;;11.87;10.27;;;22.60;86.50;;;;;;4994025;28;20185;-77
2023/05/09 10:33:08;;;;;;;10.87;9.90;;;22.50;86.50;;;;;;5011016;28;20226;-77
2023/05/09 10:35:43;;;;;;;12.00;10.80;;;22.40;88.90;;;;;;5014472;28;20176;-78
2023/05/09 10:38:11;;;;;;;12.40;11.20;;;22.40;89.40;;;;;;5013695;28;20182;-79
2023/05/09 10:40:39;;;;;;;11.97;10.77;;;22.30;91.00;;;;;;5016982;28;20281;-78
2023/05/09 10:43:06;;;;;;;11.17;10.10;;;22.20;92.20;;;;;;5019947;28;20267;-81
2023/05/09 10:45:33;;;;;;;13.53;12.13;;;22.40;92.90;;;;;;5016819;28;20209;-79
2023/05/09 10:48:02;;;;;;;14.17;12.90;;;22.60;91.70;;;;;;5012944;28;20288;-79
2023/05/09 10:50:29;;;;;;;11.50;10.40;;;22.80;91.00;;;;;;4995047;28;20195;-78
2023/05/09 10:53:07;;;;;;;12.57;11.37;;;23.00;89.50;;;;;;5007711;28;20283;-79
2023/05/09 10:55:37;;;;;;;13.57;12.13;;;23.20;84.60;;;;;;4978321;28;20237;-79
2023/05/09 10:58:25;;;;;;;11.63;10.43;;;23.30;83.30;;;;;;4997883;28;20188;-79
2023/05/09 11:00:52;;;;;;;9.63;8.70;;;23.40;79.30;;;;;;5011231;28;20668;-78
2023/05/09 11:03:18;;;;;;;9.63;8.70;;;23.50;78.60;;;;;;5010989;28;20221;-79
2023/05/09 11:05:46;;;;;;;8.97;8.10;;;23.70;78.40;;;;;;5005465;28;20861;-79
2023/05/09 11:08:19;;;;;;;9.80;8.80;;;23.90;74.90;;;;;;5011264;28;20217;-79
2023/05/09 11:10:45;;;;;;;8.87;7.60;;;24.00;74.80;;;;;;5004664;28;20647;-81
2023/05/09 11:13:11;;;;;;;9.47;8.57;;;24.10;73.30;;;;;;5009819;28;20213;-78
2023/05/09 11:15:49;;;;;;;7.83;6.87;;;24.20;73.50;;;;;;5009677;28;20192;-78
2023/05/09 11:18:15;;;;;;;7.40;6.80;;;24.30;71.90;;;;;;5007401;28;20179;-79
2023/05/09 11:20:47;;;;;;;8.77;7.87;;;24.50;70.80;;;;;;5003455;28;20190;-79
2023/05/09 11:23:16;;;;;;;10.50;8.80;;;24.50;68.60;;;;;;5000333;28;20626;-79
2023/05/09 11:25:45;;;;;;;9.33;8.53;;;24.40;69.50;;;;;;5004190;28;20193;-79
2023/05/09 11:28:28;;;;;;;7.67;6.87;;;24.30;71.10;;;;;;5012358;28;20207;-79
2023/05/09 11:31:11;;;;;;;6.03;5.43;;;24.10;70.00;;;;;;5005640;28;20205;-78
2023/05/09 11:33:38;;;;;;;5.87;5.20;;;23.80;69.10;;;;;;5010392;28;20230;-79
2023/05/09 11:36:17;;;;;;;5.50;5.00;;;23.60;70.10;;;;;;5012422;28;20215;-78
2023/05/09 11:38:44;;;;;;;8.87;8.00;;;23.40;72.10;;;;;;4975406;28;20661;-78
2023/05/09 11:41:10;;;;;;;12.13;11.03;;;23.40;72.80;;;;;;4993613;28;20564;-78
2023/05/09 11:43:37;;;;;;;16.50;14.47;;;23.50;75.10;;;;;;4990457;28;20568;-78
2023/05/09 11:46:03;;;;;;;14.00;12.40;;;23.50;75.90;;;;;;5005903;28;20188;-79
2023/05/09 11:48:29;;;;;;;13.67;12.30;;;23.50;78.60;;;;;;5014275;28;20213;-78
2023/05/09 11:50:55;;;;;;;12.23;11.03;;;23.40;78.60;;;;;;5016247;28;20183;-79
2023/05/09 11:53:21;;;;;;;10.73;9.63;;;23.30;80.30;;;;;;5015500;28;20678;-78
2023/05/09 11:55:48;;;;;;;9.30;8.50;;;23.30;80.40;;;;;;5024045;28;20217;-78
2023/05/09 11:58:14;;;;;;;10.53;8.97;;;23.30;81.40;;;;;;5009592;28;20204;-78
2023/05/09 12:00:44;;;;;;;10.13;8.40;;;23.20;81.80;;;;;;5007043;28;20179;-78
2023/05/09 12:03:11;;;;;;;10.57;8.53;;;23.10;80.80;;;;;;5014767;28;20207;-79
2023/05/09 12:05:40;;;;;;;9.80;8.90;;;23.00;81.40;;;;;;5012206;28;20188;-78
2023/05/09 12:08:06;;;;;;;9.20;8.30;;;23.00;82.20;;;;;;4999443;28;20210;-78
2023/05/09 12:10:36;;;;;;;9.93;8.73;;;22.90;81.20;;;;;;5015179;28;20183;-78
2023/05/09 12:13:02;;;;;;;9.97;8.97;;;22.90;82.50;;;;;;5010284;28;20277;-83
2023/05/09 12:15:28;;;;;;;10.40;9.40;;;22.90;84.80;;;;;;5012226;28;20270;-79
2023/05/09 12:18:02;;;;;;;9.57;8.67;;;22.90;85.30;;;;;;5013900;28;20234;-78
2023/05/09 12:20:51;;;;;;;10.27;9.27;;;22.90;83.60;;;;;;5015072;28;20195;-78
2023/05/09 12:23:18;;;;;;;11.00;9.67;;;23.00;83.90;;;;;;5015334;28;20212;-79
2023/05/09 12:25:54;;;;;;;10.47;9.50;;;23.20;83.80;;;;;;5018841;28;20242;-79
2023/05/09 12:28:22;;;;;;;9.23;8.20;;;23.50;84.60;;;;;;5019129;28;20223;-79
2023/05/09 12:30:50;;;;;;;7.90;7.20;;;23.70;81.10;;;;;;5015622;28;20207;-78